createdAt,value
2023-04-03T00:01:55.760Z,4.20
2023-04-03T00:04:17.393Z,6.27
2023-04-03T00:06:38.850Z,8.93
2023-04-03T00:09:00.350Z,8.33
2023-04-03T00:11:21.786Z,5.00
2023-04-03T00:13:43.791Z,3.87
2023-04-03T00:16:05.853Z,6.07
2023-04-03T00:18:27.393Z,7.67
2023-04-03T00:20:49.072Z,4.40
2023-04-03T00:23:10.895Z,6.93
2023-04-03T00:25:32.431Z,6.33
2023-04-03T00:27:53.864Z,7.70
2023-04-03T00:30:17.734Z,5.00
2023-04-03T00:32:39.358Z,4.70
2023-04-03T00:35:00.869Z,4.67
2023-04-03T00:37:22.355Z,5.33
2023-04-03T00:39:44.164Z,7.53
2023-04-03T00:42:05.605Z,3.80
2023-04-03T00:44:36.151Z,6.03
2023-04-03T00:46:57.627Z,7.20
2023-04-03T00:49:19.147Z,6.87
2023-04-03T00:51:41.062Z,7.40
2023-04-03T00:54:06.444Z,5.90
2023-04-03T00:56:30.828Z,6.83
2023-04-03T00:58:59.869Z,9.47
2023-04-03T01:01:26.205Z,3.60
2023-04-03T01:03:47.735Z,6.10
2023-04-03T01:06:09.312Z,4.97
2023-04-03T01:08:31.241Z,5.77
2023-04-03T01:10:52.761Z,5.33
2023-04-03T01:13:30.424Z,4.00
2023-04-03T01:15:51.949Z,6.53
2023-04-03T01:18:13.445Z,9.20
2023-04-03T01:20:36.846Z,4.77
2023-04-03T01:23:11.111Z,7.17
2023-04-03T01:25:33.205Z,6.93
2023-04-03T01:27:54.729Z,7.07
2023-04-03T01:30:18.900Z,7.63
2023-04-03T01:32:40.383Z,7.00
2023-04-03T01:35:01.838Z,5.73
2023-04-03T01:37:23.289Z,6.77
2023-04-03T01:39:44.730Z,3.83
2023-04-03T01:42:06.740Z,7.50
2023-04-03T01:44:28.372Z,5.10
2023-04-03T01:46:49.864Z,5.83
2023-04-03T01:49:11.400Z,12.40
2023-04-03T01:51:34.074Z,6.53
2023-04-03T01:53:55.527Z,5.40
2023-04-03T01:56:16.973Z,4.20
2023-04-03T01:58:38.411Z,7.87
2023-04-03T02:01:00.264Z,5.23
2023-04-03T02:03:21.775Z,7.87
2023-04-03T02:05:43.395Z,6.63
2023-04-03T02:08:05.104Z,11.17
2023-04-03T02:10:26.586Z,3.93
2023-04-03T02:12:48.065Z,5.53
2023-04-03T02:15:10.024Z,6.80
2023-04-03T02:17:31.660Z,6.33
2023-04-03T02:19:53.158Z,9.00
2023-04-03T02:22:14.751Z,4.57
2023-04-03T02:24:36.370Z,7.87
2023-04-03T02:26:57.904Z,4.20
2023-04-03T02:29:19.361Z,6.30
2023-04-03T02:31:40.886Z,5.10
2023-04-03T02:34:02.347Z,6.83
2023-04-03T02:36:23.763Z,6.50
2023-04-03T02:38:46.570Z,10.40
2023-04-03T02:41:11.276Z,6.13
2023-04-03T02:43:32.982Z,7.67
2023-04-03T02:45:54.447Z,11.83
2023-04-03T02:48:17.768Z,7.93
2023-04-03T02:50:39.277Z,9.53
2023-04-03T02:53:00.840Z,4.63
2023-04-03T02:55:22.317Z,6.77
2023-04-03T02:57:43.780Z,4.87
2023-04-03T03:00:06.221Z,4.93
2023-04-03T03:02:27.727Z,8.07
2023-04-03T03:04:49.266Z,8.03
2023-04-03T03:07:11.112Z,8.07
2023-04-03T03:09:33.034Z,9.13
2023-04-03T03:11:54.496Z,10.27
2023-04-03T03:14:16.275Z,5.93
2023-04-03T03:16:37.771Z,10.53
2023-04-03T03:18:59.644Z,7.30
2023-04-03T03:21:21.215Z,7.67
2023-04-03T03:23:42.689Z,7.03
2023-04-03T03:26:06.942Z,6.13
2023-04-03T03:28:28.541Z,9.20
2023-04-03T03:30:50.032Z,8.80
2023-04-03T03:33:11.711Z,8.57
2023-04-03T03:35:33.674Z,6.07
2023-04-03T03:37:55.438Z,6.23
2023-04-03T03:40:17.001Z,10.03
2023-04-03T03:42:40.270Z,8.47
2023-04-03T03:45:01.773Z,5.13
2023-04-03T03:47:23.329Z,6.60
2023-04-03T03:49:44.810Z,8.53
2023-04-03T03:52:06.284Z,7.80
2023-04-03T03:54:27.760Z,7.07
2023-04-03T03:56:49.261Z,4.67
2023-04-03T03:59:12.906Z,11.20
2023-04-03T04:01:34.635Z,8.80
2023-04-03T04:03:56.636Z,7.23
2023-04-03T04:06:18.448Z,6.90
2023-04-03T04:08:39.938Z,9.77
2023-04-03T04:11:01.433Z,9.17
2023-04-03T04:13:22.916Z,6.10
2023-04-03T04:15:44.698Z,9.83
2023-04-03T04:18:06.498Z,6.47
2023-04-03T04:20:27.976Z,8.00
2023-04-03T04:22:49.443Z,5.63
2023-04-03T04:25:11.329Z,6.60
2023-04-03T04:27:32.763Z,8.80
2023-04-03T04:29:54.247Z,6.30
2023-04-03T04:32:15.888Z,8.87
2023-04-03T04:34:37.426Z,6.50
2023-04-03T04:36:59.070Z,10.53
2023-04-03T04:39:20.689Z,10.93
2023-04-03T04:41:42.167Z,8.37
2023-04-03T04:44:03.746Z,7.40
2023-04-03T04:46:25.383Z,7.83
2023-04-03T04:48:46.921Z,6.90
2023-04-03T04:51:08.550Z,7.23
2023-04-03T04:53:30.651Z,5.87
2023-04-03T04:55:53.144Z,7.47
2023-04-03T04:58:14.721Z,9.27
2023-04-03T05:00:36.283Z,9.50
2023-04-03T05:02:57.791Z,9.60
2023-04-03T05:05:19.315Z,10.83
2023-04-03T05:07:41.426Z,6.07
2023-04-03T05:10:04.587Z,8.40
2023-04-03T05:12:26.057Z,5.27
2023-04-03T05:14:47.555Z,9.80
2023-04-03T05:17:09.046Z,7.40
2023-04-03T05:19:30.621Z,10.37
2023-04-03T05:21:52.179Z,6.70
2023-04-03T05:24:13.723Z,6.17
2023-04-03T05:26:35.234Z,12.57
2023-04-03T05:28:57.139Z,12.07
2023-04-03T05:31:18.721Z,8.97
2023-04-03T05:33:40.213Z,10.90
2023-04-03T05:36:06.526Z,6.63
2023-04-03T05:38:29.950Z,10.03
2023-04-03T05:40:51.500Z,11.93
2023-04-03T05:43:13.080Z,9.60
2023-04-03T05:45:34.579Z,8.53
2023-04-03T05:47:56.270Z,7.17
2023-04-03T05:50:17.921Z,8.43
2023-04-03T05:52:43.527Z,8.17
2023-04-03T05:55:05.536Z,7.23
2023-04-03T05:57:27.026Z,10.40
2023-04-03T05:59:48.984Z,7.20
2023-04-03T06:02:13.785Z,10.10
2023-04-03T06:04:35.650Z,10.03
2023-04-03T06:06:58.588Z,15.57
2023-04-03T06:09:22.168Z,23.23
2023-04-03T06:11:43.770Z,11.97
2023-04-03T06:14:05.216Z,9.53
2023-04-03T06:16:26.771Z,14.83
2023-04-03T06:18:48.234Z,12.80
2023-04-03T06:21:09.709Z,22.37
2023-04-03T06:23:31.382Z,14.57
2023-04-03T06:25:52.803Z,9.97
2023-04-03T06:28:14.376Z,11.00
2023-04-03T06:30:36.477Z,11.97
2023-04-03T06:32:58.177Z,11.13
2023-04-03T06:35:19.758Z,11.67
2023-04-03T06:37:41.181Z,10.27
2023-04-03T06:40:04.126Z,20.63
2023-04-03T06:42:25.633Z,20.67
2023-04-03T06:44:47.206Z,12.87
2023-04-03T06:47:12.639Z,9.90
2023-04-03T06:49:34.566Z,10.37
2023-04-03T06:51:57.092Z,8.50
2023-04-03T06:54:19.437Z,9.07
2023-04-03T06:56:41.067Z,11.10
2023-04-03T06:59:03.091Z,12.87
2023-04-03T07:01:27.278Z,10.10
2023-04-03T07:03:49.593Z,9.07
2023-04-03T07:06:13.856Z,7.80
2023-04-03T07:08:35.793Z,8.33
2023-04-03T07:10:57.293Z,10.33
2023-04-03T07:13:18.753Z,8.10
2023-04-03T07:15:40.530Z,10.47
2023-04-03T07:18:02.040Z,6.67
2023-04-03T07:20:23.524Z,9.10
2023-04-03T07:22:45.041Z,8.40
2023-04-03T07:25:08.263Z,6.70
2023-04-03T07:27:29.739Z,19.20
2023-04-03T07:29:51.323Z,8.23
2023-04-03T07:32:12.767Z,8.80
2023-04-03T07:34:34.299Z,14.27
2023-04-03T07:36:55.881Z,14.63
2023-04-03T07:39:17.422Z,12.13
2023-04-03T07:41:39.298Z,9.13
2023-04-03T07:44:00.751Z,10.20
2023-04-03T07:46:22.295Z,7.80
2023-04-03T07:48:43.875Z,12.17
2023-04-03T07:51:06.301Z,8.63
2023-04-03T07:53:27.761Z,8.27
2023-04-03T07:55:52.567Z,10.33
2023-04-03T07:58:16.646Z,7.07
2023-04-03T08:00:39.393Z,5.47
2023-04-03T08:03:00.997Z,7.60
2023-04-03T08:05:22.837Z,6.33
2023-04-03T08:07:44.337Z,6.23
2023-04-03T08:10:06.338Z,8.17
2023-04-03T08:12:29.557Z,6.87
2023-04-03T08:14:51.152Z,4.03
2023-04-03T08:17:12.823Z,6.90
2023-04-03T08:19:34.338Z,4.57
2023-04-03T08:21:56.355Z,10.73
2023-04-03T08:24:17.900Z,7.27
2023-04-03T08:26:39.404Z,5.47
2023-04-03T08:29:00.939Z,8.23
2023-04-03T08:31:22.487Z,10.17
2023-04-03T08:33:45.826Z,5.73
2023-04-03T08:36:17.021Z,7.13
2023-04-03T08:38:38.633Z,7.43
2023-04-03T08:41:07.418Z,4.57
2023-04-03T08:43:34.933Z,10.20
2023-04-03T08:45:59.394Z,9.97
2023-04-03T08:48:42.648Z,7.80
2023-04-03T08:51:13.903Z,7.77
2023-04-03T08:53:40.267Z,7.30
2023-04-03T08:56:08.701Z,10.60
2023-04-03T08:58:35.138Z,6.73
2023-04-03T09:01:07.653Z,4.17
2023-04-03T09:03:32.441Z,6.27
2023-04-03T09:06:03.102Z,5.77
2023-04-03T09:08:29.423Z,5.63
2023-04-03T09:10:55.844Z,4.30
2023-04-03T09:13:42.878Z,5.77
2023-04-03T09:16:16.557Z,5.43
2023-04-03T09:18:46.553Z,8.73
2023-04-03T09:21:22.026Z,5.73
2023-04-03T09:23:54.800Z,6.37
2023-04-03T09:26:27.263Z,9.33
2023-04-03T09:28:51.188Z,8.67
2023-04-03T09:31:20.746Z,8.63
2023-04-03T09:33:42.490Z,11.93
2023-04-03T09:36:03.993Z,8.30
2023-04-03T09:38:26.511Z,5.07
2023-04-03T09:41:04.553Z,7.63
2023-04-03T09:43:34.336Z,7.67
2023-04-03T09:45:57.700Z,9.00
2023-04-03T09:48:22.739Z,8.10
2023-04-03T09:51:00.365Z,3.57
2023-04-03T09:53:41.961Z,5.10
2023-04-03T09:56:26.809Z,5.83
2023-04-03T09:59:13.809Z,3.80
2023-04-03T10:01:38.240Z,6.60
2023-04-03T10:04:09.477Z,6.00
2023-04-03T10:06:36.376Z,3.30
2023-04-03T10:09:06.233Z,3.57
2023-04-03T10:11:28.091Z,6.77
2023-04-03T10:14:00.374Z,3.87
2023-04-03T10:16:28.371Z,6.00
2023-04-03T10:18:59.186Z,3.07
2023-04-03T10:21:47.678Z,3.73
2023-04-03T10:24:12.405Z,2.60
2023-04-03T10:26:58.279Z,3.70
2023-04-03T10:29:35.584Z,3.00
2023-04-03T10:32:23.762Z,2.17
2023-04-03T10:34:54.727Z,2.77
2023-04-03T10:37:37.788Z,3.67
2023-04-03T10:40:06.820Z,2.23
2023-04-03T10:42:40.338Z,2.40
2023-04-03T10:45:39.084Z,3.10
2023-04-03T10:48:32.929Z,5.00
2023-04-03T10:51:06.075Z,4.67
2023-04-03T10:54:01.018Z,4.97
2023-04-03T10:57:04.529Z,4.27
2023-04-03T10:59:33.227Z,3.53
2023-04-03T11:02:01.701Z,4.33
2023-04-03T11:04:26.779Z,4.80
2023-04-03T11:06:54.445Z,3.40
2023-04-03T11:09:27.366Z,1.70
2023-04-03T11:11:52.508Z,7.17
2023-04-03T11:14:37.452Z,3.03
2023-04-03T11:17:19.119Z,6.90
2023-04-03T11:19:45.045Z,6.57
2023-04-03T11:22:16.138Z,4.90
2023-04-03T11:24:42.222Z,4.53
2023-04-03T11:27:06.320Z,5.00
2023-04-03T11:29:35.933Z,5.90
2023-04-03T11:32:17.552Z,4.70
2023-04-03T11:34:44.348Z,5.90
2023-04-03T11:37:13.831Z,2.77
2023-04-03T11:39:39.610Z,4.63
2023-04-03T11:42:17.894Z,2.23
2023-04-03T11:44:40.043Z,2.90
2023-04-03T11:47:03.487Z,3.40
2023-04-03T11:50:00.399Z,6.10
2023-04-03T11:52:43.666Z,2.90
2023-04-03T11:55:24.007Z,5.17
2023-04-03T11:58:00.725Z,3.13
2023-04-03T12:00:59.335Z,2.93
2023-04-03T12:03:27.593Z,4.87
2023-04-03T12:05:49.182Z,4.33
2023-04-03T12:08:31.554Z,3.67
2023-04-03T12:11:11.568Z,4.10
2023-04-03T12:13:33.235Z,3.73
2023-04-03T12:15:55.221Z,6.80
2023-04-03T12:18:42.503Z,4.00
2023-04-03T12:21:04.437Z,2.97
2023-04-03T12:23:37.371Z,6.03
2023-04-03T12:26:23.079Z,4.73
2023-04-03T12:28:44.844Z,6.67
2023-04-03T12:31:10.830Z,3.83
2023-04-03T12:33:58.732Z,2.83
2023-04-03T12:36:33.662Z,3.87
2023-04-03T12:39:27.534Z,4.30
2023-04-03T12:41:57.091Z,6.10
2023-04-03T12:44:54.683Z,3.27
2023-04-03T12:47:41.028Z,2.93
2023-04-03T12:50:05.807Z,4.07
2023-04-03T12:52:40.812Z,4.77
2023-04-03T12:55:05.129Z,3.58
2023-04-03T12:57:28.554Z,4.28
2023-04-03T12:59:50.161Z,2.53
2023-04-03T13:02:22.351Z,3.45
2023-04-03T13:04:43.838Z,2.38
2023-04-03T13:07:05.536Z,2.88
2023-04-03T13:09:32.160Z,2.33
2023-04-03T13:12:01.397Z,3.33
2023-04-03T13:14:25.230Z,3.53
2023-04-03T13:17:17.001Z,3.95
2023-04-03T13:19:38.617Z,4.60
2023-04-03T13:22:16.950Z,6.78
2023-04-03T13:24:40.412Z,4.25
2023-04-03T13:27:02.371Z,4.35
2023-04-03T13:29:34.647Z,3.55
2023-04-03T13:31:57.221Z,5.95
2023-04-03T13:34:21.267Z,3.53
2023-04-03T13:36:55.426Z,7.75
2023-04-03T13:39:16.840Z,9.30
2023-04-03T13:41:41.201Z,6.95
2023-04-03T13:44:23.737Z,4.03
2023-04-03T13:46:45.629Z,5.20
2023-04-03T13:49:28.456Z,3.00
2023-04-03T13:52:04.348Z,3.80
2023-04-03T13:54:37.752Z,2.57
2023-04-03T13:57:00.843Z,4.17
2023-04-03T13:59:36.820Z,6.73
2023-04-03T14:02:04.494Z,4.30
2023-04-03T14:04:30.098Z,3.73
2023-04-03T14:06:52.759Z,3.53
2023-04-03T14:09:15.677Z,3.93
2023-04-03T14:11:37.428Z,4.37
2023-04-03T14:14:03.092Z,5.47
2023-04-03T14:16:28.380Z,4.63
2023-04-03T14:18:51.067Z,3.17
2023-04-03T14:21:14.692Z,4.57
2023-04-03T14:23:36.165Z,5.87
2023-04-03T14:25:57.631Z,4.73
2023-04-03T14:28:22.600Z,2.73
2023-04-03T14:30:45.242Z,6.80
2023-04-03T14:33:07.092Z,2.90
2023-04-03T14:35:29.093Z,2.90
2023-04-03T14:37:51.715Z,5.85
2023-04-03T14:40:17.247Z,7.43
2023-04-03T14:42:38.707Z,4.43
2023-04-03T14:45:02.051Z,4.18
2023-04-03T14:47:31.832Z,6.65
2023-04-03T14:49:54.223Z,4.13
2023-04-03T14:52:45.081Z,4.35
2023-04-03T14:55:07.543Z,3.47
2023-04-03T14:57:31.141Z,4.93
2023-04-03T14:59:53.420Z,4.03
2023-04-03T15:02:28.238Z,4.15
2023-04-03T15:04:51.457Z,5.55
2023-04-03T15:07:14.469Z,5.03
2023-04-03T15:09:36.887Z,4.28
2023-04-03T15:11:58.455Z,4.85
2023-04-03T15:14:29.977Z,3.20
2023-04-03T15:16:58.730Z,2.90
2023-04-03T15:19:20.279Z,7.93
2023-04-03T15:21:41.871Z,3.67
2023-04-03T15:24:03.641Z,2.55
2023-04-03T15:26:26.065Z,4.10
2023-04-03T15:28:47.648Z,3.28
2023-04-03T15:31:10.008Z,3.58
2023-04-03T15:33:33.242Z,3.45
2023-04-03T15:36:02.691Z,9.20
2023-04-03T15:38:28.442Z,6.10
2023-04-03T15:40:50.042Z,5.22
2023-04-03T15:43:11.858Z,4.80
2023-04-03T15:45:36.027Z,3.75
2023-04-03T15:47:58.676Z,3.55
2023-04-03T15:50:20.278Z,2.53
2023-04-03T15:52:41.785Z,4.65
2023-04-03T15:55:04.070Z,7.93
2023-04-03T15:57:27.856Z,3.40
2023-04-03T15:59:49.367Z,3.60
2023-04-03T16:02:13.938Z,4.00
2023-04-03T16:04:36.124Z,6.55
2023-04-03T16:06:57.823Z,2.55
2023-04-03T16:09:19.445Z,6.68
2023-04-03T16:11:41.111Z,5.32
2023-04-03T16:14:02.737Z,5.00
2023-04-03T16:16:27.001Z,3.90
2023-04-03T16:18:48.793Z,2.90
2023-04-03T16:21:10.388Z,5.43
2023-04-03T16:23:31.880Z,5.17
2023-04-03T16:25:53.504Z,3.10
2023-04-03T16:28:15.562Z,4.23
2023-04-03T16:30:37.099Z,6.23
2023-04-03T16:32:58.712Z,5.83
2023-04-03T16:35:20.324Z,5.53
2023-04-03T16:37:41.890Z,5.87
2023-04-03T16:40:04.605Z,4.40
2023-04-03T16:42:26.529Z,6.97
2023-04-03T16:44:48.098Z,4.43
2023-04-03T16:47:09.960Z,5.27
2023-04-03T16:49:33.882Z,5.37
2023-04-03T16:51:55.501Z,4.87
2023-04-03T16:54:17.021Z,4.53
2023-04-03T16:56:38.482Z,5.67
2023-04-03T16:58:59.968Z,6.87
2023-04-03T17:01:23.751Z,6.20
2023-04-03T17:03:45.817Z,7.37
2023-04-03T17:06:07.419Z,7.37
2023-04-03T17:08:28.939Z,10.60
2023-04-03T17:10:52.843Z,6.03
2023-04-03T17:13:14.363Z,6.83
2023-04-03T17:15:36.419Z,5.10
2023-04-03T17:17:58.043Z,5.33
2023-04-03T17:20:19.927Z,5.23
2023-04-03T17:22:41.510Z,5.30
2023-04-03T17:25:03.775Z,4.03
2023-04-03T17:27:25.697Z,3.97
2023-04-03T17:29:47.256Z,5.83
2023-04-03T17:32:08.909Z,6.87
2023-04-03T17:34:30.580Z,5.73
2023-04-03T17:36:52.056Z,7.33
2023-04-03T17:39:13.938Z,2.93
2023-04-03T17:41:35.890Z,4.87
2023-04-03T17:43:57.486Z,2.77
2023-04-03T17:46:19.077Z,4.33
2023-04-03T17:48:41.485Z,3.93
2023-04-03T17:51:07.527Z,2.70
2023-04-03T17:53:28.972Z,3.80
2023-04-03T17:55:50.519Z,4.30
2023-04-03T17:58:12.233Z,2.50
2023-04-03T18:00:33.765Z,4.40
2023-04-03T18:02:55.989Z,5.13
2023-04-03T18:05:17.519Z,5.50
2023-04-03T18:07:40.729Z,6.10
2023-04-03T18:10:05.102Z,7.67
2023-04-03T18:12:26.901Z,6.37
2023-04-03T18:14:49.383Z,8.23
2023-04-03T18:17:11.224Z,6.80
2023-04-03T18:19:33.385Z,6.10
2023-04-03T18:22:01.932Z,4.73
2023-04-03T18:24:24.637Z,5.60
2023-04-03T18:26:51.719Z,6.57
2023-04-03T18:29:13.486Z,3.50
2023-04-03T18:31:37.414Z,8.47
2023-04-03T18:33:59.161Z,5.27
2023-04-03T18:36:21.340Z,3.57
2023-04-03T18:38:42.820Z,4.13
2023-04-03T18:41:07.561Z,3.57
2023-04-03T18:43:29.524Z,8.93
2023-04-03T18:45:51.281Z,8.27
2023-04-03T18:48:12.909Z,12.60
2023-04-03T18:50:35.030Z,6.23
2023-04-03T18:52:56.636Z,3.73
2023-04-03T18:55:21.905Z,4.63
2023-04-03T18:57:43.405Z,4.63
2023-04-03T19:00:05.854Z,4.97
2023-04-03T19:02:28.161Z,3.87
2023-04-03T19:04:50.990Z,8.27
2023-04-03T19:07:12.990Z,5.97
2023-04-03T19:09:34.661Z,3.67
2023-04-03T19:11:56.121Z,5.50
2023-04-03T19:14:17.653Z,5.40
2023-04-03T19:16:39.525Z,2.60
2023-04-03T19:19:01.076Z,2.97
2023-04-03T19:21:22.609Z,4.37
2023-04-03T19:23:44.992Z,4.37
2023-04-03T19:26:08.309Z,3.90
2023-04-03T19:28:30.003Z,3.33
2023-04-03T19:30:51.707Z,2.63
2023-04-03T19:33:13.326Z,4.57
2023-04-03T19:35:34.866Z,8.47
2023-04-03T19:37:56.323Z,3.97
2023-04-03T19:40:18.098Z,4.27
2023-04-03T19:42:42.891Z,3.73
2023-04-03T19:45:04.767Z,3.03
2023-04-03T19:47:26.340Z,4.17
2023-04-03T19:49:48.597Z,3.70
2023-04-03T19:52:10.322Z,5.73
2023-04-03T19:54:31.799Z,4.77
2023-04-03T19:56:53.465Z,4.50
2023-04-03T19:59:16.504Z,7.17
2023-04-03T20:01:38.220Z,4.33
2023-04-03T20:03:59.730Z,3.47
2023-04-03T20:06:21.821Z,8.60
2023-04-03T20:08:43.780Z,5.33
2023-04-03T20:11:05.976Z,6.03
2023-04-03T20:13:27.559Z,2.53
2023-04-03T20:15:49.237Z,2.97
2023-04-03T20:18:18.046Z,3.57
2023-04-03T20:20:42.528Z,4.93
2023-04-03T20:23:04.352Z,3.07
2023-04-03T20:27:53.108Z,3.57
2023-04-03T20:30:14.868Z,3.83
2023-04-03T20:32:36.478Z,3.43
2023-04-03T20:35:04.447Z,3.80
2023-04-03T20:37:26.665Z,3.87
2023-04-03T20:39:48.555Z,4.13
2023-04-03T20:42:10.961Z,3.47
2023-04-03T20:44:33.011Z,8.23
2023-04-03T20:46:54.597Z,10.43
2023-04-03T20:49:16.164Z,3.70
2023-04-03T20:51:38.508Z,3.60
2023-04-03T20:53:59.987Z,8.07
2023-04-03T20:56:21.509Z,6.20
2023-04-03T20:58:43.971Z,8.73
2023-04-03T21:01:23.047Z,5.33
2023-04-03T21:03:46.361Z,2.97
2023-04-03T21:06:46.208Z,6.23
2023-04-03T21:09:45.818Z,5.73
2023-04-03T21:12:44.800Z,4.87
2023-04-03T21:15:45.207Z,4.27
2023-04-03T21:18:07.652Z,4.10
2023-04-03T21:20:31.310Z,3.27
2023-04-03T21:22:52.858Z,3.27
2023-04-03T21:25:14.324Z,3.13
2023-04-03T21:27:36.213Z,4.50
2023-04-03T21:29:58.469Z,4.00
2023-04-03T21:32:19.924Z,5.13
2023-04-03T21:34:41.349Z,4.53
2023-04-03T21:37:07.951Z,5.37
2023-04-03T21:39:29.589Z,4.70
2023-04-03T21:41:52.186Z,3.70
2023-04-03T21:44:13.658Z,2.97
2023-04-03T21:46:35.810Z,4.30
2023-04-03T21:48:57.972Z,4.27
2023-04-03T21:51:19.469Z,4.63
2023-04-03T21:53:41.933Z,3.23
2023-04-03T21:56:03.550Z,5.87
2023-04-03T21:58:30.645Z,5.07
2023-04-03T22:00:52.113Z,4.03
2023-04-03T22:03:18.947Z,4.20
2023-04-03T22:05:40.484Z,6.10
2023-04-03T22:08:01.993Z,2.03
2023-04-03T22:10:23.830Z,4.43
2023-04-03T22:12:45.303Z,5.57
2023-04-03T22:15:07.718Z,4.40
2023-04-03T22:17:32.056Z,4.43
2023-04-03T22:19:53.557Z,3.87
2023-04-03T22:22:15.150Z,3.37
2023-04-03T22:24:36.654Z,4.47
2023-04-03T22:26:58.122Z,4.47
2023-04-03T22:29:19.558Z,5.77
2023-04-03T22:31:42.368Z,3.43
2023-04-03T22:34:06.787Z,5.90
2023-04-03T22:36:28.240Z,4.73
2023-04-03T22:38:49.741Z,5.90
2023-04-03T22:41:11.952Z,3.33
2023-04-03T22:43:34.959Z,5.93
2023-04-03T22:45:57.230Z,3.97
2023-04-03T22:48:18.812Z,5.77
2023-04-03T22:50:40.838Z,3.77
2023-04-03T22:53:02.436Z,3.87
2023-04-03T22:55:24.982Z,2.80
2023-04-03T22:57:49.656Z,2.73
2023-04-03T23:00:11.656Z,4.47
2023-04-03T23:02:33.586Z,4.70
2023-04-03T23:04:55.102Z,4.77
2023-04-03T23:07:17.359Z,6.73
2023-04-03T23:09:38.849Z,3.80
2023-04-03T23:12:00.346Z,5.93
2023-04-03T23:14:22.717Z,4.83
2023-04-03T23:16:44.189Z,3.37
2023-04-03T23:19:05.718Z,6.47
2023-04-03T23:21:27.157Z,4.47
2023-04-03T23:23:48.639Z,4.83
2023-04-03T23:26:10.192Z,5.83
2023-04-03T23:28:31.669Z,6.03
2023-04-03T23:31:04.017Z,4.27
2023-04-03T23:33:25.725Z,4.20
2023-04-03T23:35:49.016Z,4.33
2023-04-03T23:38:10.824Z,3.27
2023-04-03T23:40:32.272Z,3.10
2023-04-03T23:42:53.766Z,4.03
2023-04-03T23:45:15.224Z,3.57
2023-04-03T23:47:37.458Z,4.53
2023-04-03T23:49:58.919Z,6.03
2023-04-03T23:52:20.409Z,2.93
2023-04-03T23:54:41.953Z,4.37
2023-04-03T23:57:03.532Z,3.53
2023-04-03T23:59:25.033Z,6.73
